Time;durP1;ratioP1;P1;durP2;ratioP2;P2;SDS_P1;SDS_P2;PMS_P1;PMS_P2;Temp;Humidity;BMP_temperature;BMP_pressure;BME280_temperature;BME280_humidity;BME280_pressure;Samples;Min_cycle;Max_cycle;Signal;HPM_P1;HPM_P2
2021/07/12 00:01:42;;;;;;;2.83;2.40;;;15.70;99.90;;;;;;5072656;28;20225;-63
2021/07/12 00:04:09;;;;;;;3.70;2.40;;;15.70;99.90;;;;;;5072762;28;20227;-63
2021/07/12 00:06:35;;;;;;;4.43;2.17;;;15.70;99.90;;;;;;5072542;28;20205;-63
2021/07/12 00:09:02;;;;;;;2.97;2.10;;;15.70;99.90;;;;;;5072952;28;20637;-63
2021/07/12 00:11:29;;;;;;;3.07;2.30;;;15.70;99.90;;;;;;5072883;28;20223;-63
2021/07/12 00:13:56;;;;;;;4.50;2.27;;;15.60;99.90;;;;;;5072390;28;20356;-63
2021/07/12 00:16:24;;;;;;;3.80;2.40;;;15.60;99.90;;;;;;5072347;28;20287;-63
2021/07/12 00:18:50;;;;;;;2.77;2.47;;;15.50;99.90;;;;;;5072193;28;20256;-63
2021/07/12 00:21:17;;;;;;;5.63;2.40;;;15.50;99.90;;;;;;5072032;28;20225;-63
2021/07/12 00:23:44;;;;;;;3.90;2.13;;;15.40;99.90;;;;;;5071878;28;20728;-63
2021/07/12 00:26:11;;;;;;;4.23;2.37;;;15.40;99.90;;;;;;5072319;28;20212;-63
2021/07/12 00:28:38;;;;;;;3.80;2.30;;;15.40;99.90;;;;;;5072162;28;20300;-63
2021/07/12 00:31:05;;;;;;;4.10;2.10;;;15.40;99.90;;;;;;5072182;28;20204;-63
2021/07/12 00:33:33;;;;;;;4.30;1.93;;;15.40;99.90;;;;;;5071737;28;20209;-62
2021/07/12 00:36:00;;;;;;;7.10;2.17;;;15.40;99.90;;;;;;5072185;28;20212;-63
2021/07/12 00:38:27;;;;;;;2.80;2.30;;;15.50;99.90;;;;;;5071825;28;20818;-63
2021/07/12 00:40:53;;;;;;;2.47;2.27;;;15.40;99.90;;;;;;5071821;28;20221;-63
2021/07/12 00:43:20;;;;;;;3.17;2.10;;;15.50;99.90;;;;;;5071833;28;20205;-63
2021/07/12 00:45:47;;;;;;;3.93;2.17;;;15.40;99.90;;;;;;5071982;28;20205;-63
2021/07/12 00:48:14;;;;;;;5.07;2.07;;;15.30;99.90;;;;;;5071532;28;20258;-63
2021/07/12 00:50:47;;;;;;;3.50;2.30;;;15.20;99.90;;;;;;5071979;28;20201;-64
2021/07/12 00:53:14;;;;;;;6.50;2.47;;;15.30;99.90;;;;;;5071770;28;20255;-63
2021/07/12 00:55:43;;;;;;;2.30;2.03;;;15.30;99.90;;;;;;5071433;28;20225;-63
2021/07/12 00:58:12;;;;;;;4.73;2.30;;;15.30;99.90;;;;;;5071511;28;20278;-63
2021/07/12 01:00:41;;;;;;;4.03;2.27;;;15.30;99.90;;;;;;5071211;28;20715;-62
2021/07/12 01:03:09;;;;;;;2.43;2.13;;;15.30;99.90;;;;;;5071607;28;20259;-63
2021/07/12 01:05:35;;;;;;;4.53;2.20;;;15.30;99.90;;;;;;5071259;28;20229;-63
2021/07/12 01:08:04;;;;;;;3.23;2.10;;;15.40;99.90;;;;;;5070712;28;20209;-63
2021/07/12 01:10:31;;;;;;;3.53;2.20;;;15.30;99.90;;;;;;5071280;28;20201;-63
2021/07/12 01:13:14;;;;;;;4.37;2.60;;;15.30;99.90;;;;;;5071285;28;20742;-62
2021/07/12 01:15:50;;;;;;;4.13;2.10;;;15.30;99.90;;;;;;5071128;28;20766;-62
2021/07/12 01:18:24;;;;;;;5.93;2.30;;;15.30;99.90;;;;;;5071144;28;20215;-63
2021/07/12 01:21:38;;;;;;;3.60;2.53;;;15.40;99.90;;;;;;5071047;28;20228;-63
2021/07/12 01:24:53;;;;;;;7.10;2.40;;;15.30;99.90;;;;;;5070640;28;20716;-63
2021/07/12 01:28:15;;;;;;;3.13;2.30;;;15.30;99.90;;;;;;4989264;28;20219;-63
2021/07/12 01:31:16;;;;;;;3.57;2.27;;;15.20;99.90;;;;;;5071211;28;20208;-63
2021/07/12 01:33:48;;;;;;;3.57;2.37;;;15.20;99.90;;;;;;5071224;28;20225;-63
2021/07/12 01:36:21;;;;;;;4.10;2.30;;;15.20;99.90;;;;;;5071153;28;20241;-63
2021/07/12 01:38:59;;;;;;;5.37;2.53;;;15.20;99.90;;;;;;5071059;28;20212;-63
2021/07/12 01:41:34;;;;;;;4.37;2.23;;;15.10;99.90;;;;;;5071199;28;20224;-63
2021/07/12 01:44:03;;;;;;;6.00;2.40;;;15.10;99.90;;;;;;5070983;28;20224;-63
2021/07/12 01:46:33;;;;;;;5.27;2.40;;;15.10;99.90;;;;;;5070728;28;20672;-63
2021/07/12 01:49:08;;;;;;;2.83;2.27;;;15.20;99.90;;;;;;5070840;28;20213;-63
2021/07/12 01:51:42;;;;;;;3.47;2.33;;;15.20;99.90;;;;;;5071055;28;20235;-63
2021/07/12 01:54:13;;;;;;;3.77;2.60;;;15.20;99.90;;;;;;5070559;28;20228;-63
2021/07/12 01:56:45;;;;;;;4.23;2.30;;;15.20;99.90;;;;;;5070963;28;20204;-63
2021/07/12 01:59:17;;;;;;;3.20;2.27;;;15.10;99.90;;;;;;5070361;28;20300;-63
2021/07/12 02:01:45;;;;;;;2.37;2.07;;;15.00;99.90;;;;;;5070611;28;20316;-63
2021/07/12 02:04:15;;;;;;;5.97;2.60;;;15.00;99.90;;;;;;5070353;28;20225;-63
2021/07/12 02:06:43;;;;;;;5.60;2.40;;;15.00;99.90;;;;;;5070470;28;20609;-63
2021/07/12 02:09:12;;;;;;;5.30;2.50;;;14.90;99.90;;;;;;5070296;28;20200;-63
2021/07/12 02:11:42;;;;;;;3.63;2.10;;;14.90;99.90;;;;;;5070313;28;20587;-63
2021/07/12 02:14:10;;;;;;;2.60;2.40;;;15.00;99.90;;;;;;5070328;28;20655;-63
2021/07/12 02:16:39;;;;;;;2.50;2.30;;;15.00;99.90;;;;;;5070470;28;20201;-63
2021/07/12 02:19:08;;;;;;;3.33;2.20;;;15.00;99.90;;;;;;5070463;28;20219;-64
2021/07/12 02:21:38;;;;;;;5.03;2.53;;;15.00;99.90;;;;;;5073100;28;20221;-63
2021/07/12 02:24:06;;;;;;;2.83;2.53;;;15.00;99.90;;;;;;5073979;28;20243;-63
2021/07/12 02:26:34;;;;;;;4.50;2.40;;;15.00;99.90;;;;;;5074551;28;20212;-63
2021/07/12 02:29:02;;;;;;;3.83;2.40;;;15.00;99.90;;;;;;5074377;28;20232;-63
2021/07/12 02:31:30;;;;;;;3.87;2.70;;;14.90;99.90;;;;;;5074490;28;20205;-63
2021/07/12 02:33:59;;;;;;;3.77;2.20;;;14.90;99.90;;;;;;5074071;28;20224;-63
2021/07/12 02:36:27;;;;;;;2.53;2.33;;;14.90;99.90;;;;;;5074174;28;20358;-63
2021/07/12 02:38:56;;;;;;;8.63;6.00;;;14.90;99.90;;;;;;5074240;28;20258;-63
2021/07/12 02:41:23;;;;;;;3.53;2.30;;;14.90;99.90;;;;;;5074221;28;20391;-63
2021/07/12 02:43:51;;;;;;;3.60;2.57;;;14.90;99.90;;;;;;5073972;28;20286;-63
2021/07/12 02:46:20;;;;;;;5.27;2.70;;;15.00;99.90;;;;;;5074070;28;20209;-63
2021/07/12 02:48:46;;;;;;;4.20;2.70;;;15.00;99.90;;;;;;5074137;28;20682;-63
2021/07/12 02:51:18;;;;;;;3.73;2.43;;;15.00;99.90;;;;;;5073970;28;20277;-63
2021/07/12 02:53:49;;;;;;;2.70;2.40;;;15.00;99.90;;;;;;5074065;28;20233;-63
2021/07/12 02:56:17;;;;;;;4.43;2.43;;;14.90;99.90;;;;;;5073901;28;20584;-64
2021/07/12 02:58:44;;;;;;;3.87;3.43;;;14.90;99.90;;;;;;5073574;28;20695;-63
2021/07/12 03:01:11;;;;;;;4.60;2.40;;;14.90;99.90;;;;;;5074322;28;20619;-63
2021/07/12 03:03:38;;;;;;;5.40;2.20;;;14.90;99.90;;;;;;5073457;28;20236;-63
2021/07/12 03:06:10;;;;;;;3.77;2.30;;;14.90;99.90;;;;;;5073757;28;20262;-63
2021/07/12 03:08:47;;;;;;;3.70;2.20;;;14.90;99.90;;;;;;5073763;28;20224;-63
2021/07/12 03:11:16;;;;;;;3.63;2.37;;;14.80;99.90;;;;;;5073846;28;20617;-63
2021/07/12 03:13:51;;;;;;;7.00;2.60;;;14.90;99.90;;;;;;5073488;28;20229;-63
2021/07/12 03:16:18;;;;;;;4.03;2.37;;;14.80;99.90;;;;;;5073702;28;20219;-63
2021/07/12 03:18:50;;;;;;;2.90;2.23;;;14.80;99.90;;;;;;5073623;28;20215;-63
2021/07/12 03:21:19;;;;;;;3.17;2.80;;;14.80;99.90;;;;;;5073609;28;20256;-63
2021/07/12 03:23:49;;;;;;;3.83;2.50;;;14.80;99.90;;;;;;5097420;22;20301;-61
2021/07/12 03:26:17;;;;;;;2.40;2.20;;;14.80;99.90;;;;;;5053544;28;20213;-62
2021/07/12 03:28:47;;;;;;;3.93;2.53;;;14.70;99.90;;;;;;5054033;28;20206;-62
2021/07/12 03:31:14;;;;;;;5.30;2.80;;;14.70;99.90;;;;;;5053032;28;20617;-62
2021/07/12 03:33:42;;;;;;;3.97;2.70;;;14.70;99.90;;;;;;5053873;28;20366;-61
2021/07/12 03:36:10;;;;;;;6.40;2.90;;;14.80;99.90;;;;;;5053636;28;20638;-62
2021/07/12 03:38:37;;;;;;;6.20;2.67;;;14.80;99.90;;;;;;5053342;28;20673;-62
2021/07/12 03:41:05;;;;;;;3.70;3.30;;;14.90;99.90;;;;;;5053571;28;20206;-63
2021/07/12 03:43:32;;;;;;;6.37;2.37;;;14.90;99.90;;;;;;5053295;28;20233;-62
2021/07/12 03:46:02;;;;;;;5.63;2.63;;;15.00;99.90;;;;;;5053376;28;20242;-62
2021/07/12 03:48:36;;;;;;;5.20;2.30;;;14.90;99.90;;;;;;5053383;28;20202;-62
2021/07/12 03:51:05;;;;;;;4.23;2.40;;;14.90;99.90;;;;;;5053418;28;20205;-62
2021/07/12 03:53:33;;;;;;;2.83;2.47;;;14.90;99.90;;;;;;5052996;28;20206;-61
2021/07/12 03:55:59;;;;;;;3.13;2.60;;;15.00;99.90;;;;;;5053029;28;20256;-61
2021/07/12 03:58:26;;;;;;;2.90;2.47;;;15.00;99.90;;;;;;5053136;28;20210;-61
2021/07/12 04:00:53;;;;;;;2.37;2.17;;;15.00;99.90;;;;;;5053117;28;20577;-62
2021/07/12 04:03:21;;;;;;;4.13;2.63;;;15.00;99.90;;;;;;5053159;28;20211;-61
2021/07/12 04:05:48;;;;;;;2.93;2.40;;;15.10;99.90;;;;;;5052909;28;20234;-62
2021/07/12 04:08:15;;;;;;;11.07;2.73;;;15.10;99.90;;;;;;5052752;28;20216;-62
2021/07/12 04:10:42;;;;;;;6.27;2.63;;;15.10;99.90;;;;;;5053298;28;20209;-62
2021/07/12 04:13:09;;;;;;;3.03;2.40;;;15.10;99.90;;;;;;5053049;28;20202;-62
2021/07/12 04:15:36;;;;;;;5.47;2.73;;;15.20;99.90;;;;;;5052829;28;20334;-65
2021/07/12 04:18:05;;;;;;;12.10;2.57;;;15.20;99.90;;;;;;5052778;28;20206;-61
2021/07/12 04:20:33;;;;;;;5.83;2.90;;;15.30;99.90;;;;;;5052723;28;20209;-62
2021/07/12 04:23:00;;;;;;;2.90;2.60;;;15.30;99.90;;;;;;5053025;28;20696;-62
2021/07/12 04:25:28;;;;;;;2.50;2.30;;;15.40;99.90;;;;;;5052262;28;20335;-61
2021/07/12 04:27:56;;;;;;;4.07;2.30;;;15.40;99.90;;;;;;5052449;28;20202;-61
2021/07/12 04:30:23;;;;;;;3.70;2.50;;;15.50;99.90;;;;;;5052634;28;20226;-61
2021/07/12 04:32:50;;;;;;;5.47;2.50;;;15.60;99.90;;;;;;5052653;28;20271;-62
2021/07/12 04:35:17;;;;;;;3.37;2.47;;;15.60;99.90;;;;;;5052068;28;20230;-61
2021/07/12 04:37:45;;;;;;;3.57;2.47;;;15.70;99.90;;;;;;5052344;28;20470;-61
2021/07/12 04:40:12;;;;;;;3.27;2.23;;;15.80;99.90;;;;;;5052301;28;20216;-62
2021/07/12 04:42:39;;;;;;;4.07;2.50;;;15.80;99.90;;;;;;5051779;28;20233;-62
2021/07/12 04:45:07;;;;;;;3.70;2.37;;;15.80;99.90;;;;;;5051788;28;20232;-62
2021/07/12 04:47:33;;;;;;;2.47;2.20;;;15.80;99.90;;;;;;5052389;28;20626;-62
2021/07/12 04:50:00;;;;;;;4.90;2.23;;;15.80;99.90;;;;;;5051811;28;20213;-62
2021/07/12 04:52:27;;;;;;;3.17;2.50;;;15.90;99.90;;;;;;5052209;28;20240;-61
2021/07/12 04:54:55;;;;;;;3.33;2.20;;;16.00;99.90;;;;;;5052268;28;20221;-61
2021/07/12 04:57:22;;;;;;;5.50;2.27;;;16.10;99.90;;;;;;5052103;28;20208;-61
2021/07/12 04:59:50;;;;;;;2.50;2.30;;;16.20;99.90;;;;;;5051924;28;20210;-62
2021/07/12 05:02:17;;;;;;;5.43;2.47;;;16.40;99.90;;;;;;5052263;28;20225;-62
2021/07/12 05:04:44;;;;;;;2.67;2.10;;;16.60;99.90;;;;;;5052156;28;20233;-62
2021/07/12 05:07:13;;;;;;;2.87;1.90;;;16.80;99.90;;;;;;5052278;28;20205;-63
2021/07/12 05:09:40;;;;;;;2.23;1.73;;;17.20;99.90;;;;;;5052001;28;20255;-62
2021/07/12 05:12:12;;;;;;;3.47;2.10;;;17.60;99.90;;;;;;5052155;28;20201;-63
2021/07/12 05:14:39;;;;;;;2.30;1.97;;;17.90;99.90;;;;;;5051630;28;20283;-63
2021/07/12 05:17:06;;;;;;;1.70;1.60;;;18.20;99.90;;;;;;5051556;28;20263;-61
2021/07/12 05:19:33;;;;;;;2.47;1.50;;;18.80;99.90;;;;;;5052349;28;20209;-62
2021/07/12 05:22:00;;;;;;;2.35;1.70;;;20.30;99.90;;;;;;5052080;28;20229;-60
2021/07/12 05:24:27;;;;;;;1.48;1.35;;;22.30;99.90;;;;;;5051472;28;20244;-63
2021/07/12 05:26:53;;;;;;;1.67;1.58;;;24.60;99.90;;;;;;5051570;28;20206;-62
2021/07/12 05:29:21;;;;;;;2.85;1.58;;;26.70;99.90;;;;;;5051423;28;20206;-62
2021/07/12 05:31:48;;;;;;;1.70;1.35;;;28.50;99.90;;;;;;5051678;28;20209;-61
2021/07/12 05:34:15;;;;;;;3.83;1.70;;;29.60;99.90;;;;;;5051474;28;20274;-62
2021/07/12 05:36:43;;;;;;;4.25;1.70;;;29.80;99.90;;;;;;5051572;28;20262;-61
2021/07/12 05:39:10;;;;;;;1.63;1.27;;;29.40;98.40;;;;;;5051329;28;20626;-62
2021/07/12 05:41:37;;;;;;;2.17;1.33;;;29.10;98.10;;;;;;5051686;28;20600;-62
2021/07/12 05:44:04;;;;;;;1.50;1.30;;;29.40;97.20;;;;;;5051213;28;20233;-63
2021/07/12 05:46:32;;;;;;;1.92;1.25;;;30.30;94.80;;;;;;5051467;28;20259;-62
2021/07/12 05:48:59;;;;;;;1.30;1.20;;;31.30;92.90;;;;;;5051077;28;20205;-62
2021/07/12 05:51:25;;;;;;;1.80;1.15;;;32.40;89.80;;;;;;5051054;28;20216;-62
2021/07/12 05:53:52;;;;;;;1.15;0.95;;;33.50;80.90;;;;;;5051162;28;20206;-63
2021/07/12 05:56:19;;;;;;;3.20;2.40;;;34.20;76.30;;;;;;5050882;28;20212;-62
2021/07/12 05:58:46;;;;;;;1.45;1.30;;;34.70;73.10;;;;;;5050941;28;20560;-62
2021/07/12 06:01:16;;;;;;;1.88;1.20;;;34.80;69.90;;;;;;5051126;28;20209;-62
2021/07/12 06:03:44;;;;;;;1.60;0.93;;;35.00;68.40;;;;;;5050783;28;20229;-62
2021/07/12 06:06:12;;;;;;;1.52;1.00;;;35.40;66.40;;;;;;5050805;28;20205;-62
2021/07/12 06:08:38;;;;;;;2.20;1.30;;;35.90;64.50;;;;;;5050792;28;20314;-61
2021/07/12 06:11:07;;;;;;;0.98;0.90;;;36.40;61.70;;;;;;5051462;28;20209;-62
2021/07/12 06:13:33;;;;;;;1.35;1.13;;;36.70;60.10;;;;;;5050973;28;20209;-63
2021/07/12 06:16:00;;;;;;;2.63;1.30;;;37.10;58.50;;;;;;5050922;28;20248;-63
2021/07/12 06:18:27;;;;;;;1.70;1.20;;;37.10;57.30;;;;;;5050928;28;20205;-63
2021/07/12 06:20:55;;;;;;;2.80;1.23;;;36.70;57.20;;;;;;5050964;28;20305;-63
2021/07/12 06:23:22;;;;;;;2.33;1.60;;;36.50;57.60;;;;;;5050702;28;20232;-62
2021/07/12 06:25:48;;;;;;;2.80;0.80;;;36.80;57.00;;;;;;5050813;28;20678;-62
2021/07/12 06:28:15;;;;;;;1.23;0.98;;;37.20;56.30;;;;;;5050683;28;20263;-62
2021/07/12 06:30:42;;;;;;;1.42;1.00;;;37.40;54.60;;;;;;5051150;28;20205;-63
2021/07/12 06:33:08;;;;;;;1.90;0.95;;;37.00;55.20;;;;;;5050957;28;20206;-63
2021/07/12 06:35:36;;;;;;;2.10;1.10;;;36.80;55.60;;;;;;5050500;28;20230;-63
2021/07/12 06:38:04;;;;;;;2.38;1.30;;;36.90;55.30;;;;;;5050501;28;20245;-63
2021/07/12 06:40:31;;;;;;;0.93;0.90;;;36.90;55.10;;;;;;5050770;28;20205;-63
2021/07/12 06:42:58;;;;;;;1.17;0.90;;;36.80;55.20;;;;;;5050883;28;20225;-63
2021/07/12 06:45:24;;;;;;;1.45;1.20;;;36.80;55.30;;;;;;5050503;28;20221;-63
2021/07/12 06:47:51;;;;;;;2.65;0.93;;;36.70;55.30;;;;;;5050791;28;20604;-62
2021/07/12 06:50:18;;;;;;;1.63;0.98;;;36.70;55.10;;;;;;5050395;28;20205;-63
2021/07/12 06:52:45;;;;;;;1.40;1.15;;;36.60;55.50;;;;;;5050274;28;20248;-64
2021/07/12 06:55:13;;;;;;;3.90;1.02;;;36.80;55.30;;;;;;5050365;28;20229;-63
2021/07/12 06:57:40;;;;;;;2.72;1.10;;;36.90;55.00;;;;;;5050195;28;20214;-63
2021/07/12 07:00:08;;;;;;;1.88;1.45;;;36.60;54.80;;;;;;5050340;28;20205;-63
2021/07/12 07:02:36;;;;;;;2.97;1.20;;;36.20;55.40;;;;;;5050329;28;20225;-63
2021/07/12 07:05:03;;;;;;;1.20;1.05;;;35.60;56.10;;;;;;5049928;28;20787;-63
2021/07/12 07:07:30;;;;;;;1.23;1.10;;;35.10;57.10;;;;;;5052428;28;20677;-62
2021/07/12 07:09:57;;;;;;;1.65;1.08;;;34.80;57.50;;;;;;5053951;28;20259;-63
2021/07/12 07:12:25;;;;;;;1.45;1.17;;;34.80;57.70;;;;;;5054016;28;20202;-62
2021/07/12 07:14:52;;;;;;;1.42;1.27;;;34.50;58.20;;;;;;5053906;28;20232;-63
2021/07/12 07:17:19;;;;;;;2.15;1.15;;;34.40;58.50;;;;;;5053794;28;20669;-63
2021/07/12 07:19:46;;;;;;;2.13;1.13;;;34.50;58.70;;;;;;5053895;28;20205;-63
2021/07/12 07:22:13;;;;;;;2.15;1.10;;;34.50;58.10;;;;;;5054017;28;20603;-63
2021/07/12 07:24:39;;;;;;;3.20;1.30;;;34.10;58.30;;;;;;5053692;28;20233;-63
2021/07/12 07:27:06;;;;;;;2.53;1.20;;;33.50;59.90;;;;;;5054087;28;20206;-63
2021/07/12 07:29:34;;;;;;;1.65;1.20;;;33.20;60.50;;;;;;5053908;28;20629;-63
2021/07/12 07:32:01;;;;;;;1.50;1.25;;;32.60;62.40;;;;;;5053991;28;20209;-63
2021/07/12 07:34:28;;;;;;;1.38;1.23;;;32.20;63.00;;;;;;5053791;28;20644;-59
2021/07/12 07:36:56;;;;;;;1.40;1.30;;;31.40;65.40;;;;;;5053313;28;20209;-59
2021/07/12 07:39:22;;;;;;;3.83;1.27;;;30.90;67.20;;;;;;5053363;28;20206;-59
2021/07/12 07:41:49;;;;;;;1.52;1.20;;;31.10;67.00;;;;;;5053396;28;20202;-59
2021/07/12 07:44:16;;;;;;;1.95;1.02;;;31.60;65.70;;;;;;5052964;28;20229;-60
2021/07/12 07:46:44;;;;;;;1.95;1.42;;;32.00;64.60;;;;;;5053223;28;20263;-59
2021/07/12 07:49:11;;;;;;;2.83;1.35;;;32.50;64.30;;;;;;5052986;28;20206;-60
2021/07/12 07:51:38;;;;;;;1.95;1.17;;;33.20;62.40;;;;;;5053246;28;20202;-60
2021/07/12 07:54:05;;;;;;;3.58;1.25;;;34.10;61.90;;;;;;5052925;28;20243;-60
2021/07/12 07:56:32;;;;;;;3.65;1.38;;;34.70;59.60;;;;;;5052802;28;20232;-59
2021/07/12 07:58:58;;;;;;;1.58;1.42;;;34.90;59.10;;;;;;5052920;28;20215;-60
2021/07/12 08:01:25;;;;;;;1.83;1.30;;;35.40;57.40;;;;;;5053207;28;20206;-60
2021/07/12 08:03:53;;;;;;;0.80;0.80;;;35.30;57.70;;;;;;5052743;28;20225;-62
2021/07/12 08:06:20;;;;;;;0.93;0.80;;;35.10;57.30;;;;;;5053070;28;20260;-61
2021/07/12 08:08:47;;;;;;;1.40;1.00;;;34.70;58.70;;;;;;5052951;28;20213;-57
2021/07/12 08:11:14;;;;;;;1.92;1.27;;;34.60;58.80;;;;;;5052946;28;20695;-62
2021/07/12 08:13:41;;;;;;;1.50;1.08;;;34.90;58.20;;;;;;5053012;28;20205;-63
2021/07/12 08:16:07;;;;;;;1.90;1.45;;;35.60;56.60;;;;;;5052648;28;20213;-62
2021/07/12 08:18:34;;;;;;;3.38;0.90;;;36.20;55.50;;;;;;5052657;28;20209;-62
2021/07/12 08:21:03;;;;;;;3.65;1.38;;;36.50;54.00;;;;;;5052858;28;20209;-62
2021/07/12 08:23:30;;;;;;;1.33;0.75;;;36.40;54.90;;;;;;5052697;28;20237;-62
2021/07/12 08:25:57;;;;;;;1.20;1.10;;;36.70;53.60;;;;;;5052902;28;20303;-61
2021/07/12 08:28:25;;;;;;;1.95;1.02;;;36.80;54.00;;;;;;5052714;28;20213;-62
2021/07/12 08:30:52;;;;;;;1.63;1.05;;;36.90;53.50;;;;;;5052788;28;20212;-62
2021/07/12 08:33:19;;;;;;;1.73;1.00;;;36.90;52.60;;;;;;5052905;28;20745;-62
2021/07/12 08:35:46;;;;;;;1.17;0.77;;;36.60;53.20;;;;;;5052848;28;20225;-63
2021/07/12 08:38:14;;;;;;;3.17;0.95;;;36.20;53.60;;;;;;5052413;28;20556;-62
2021/07/12 08:40:41;;;;;;;1.80;1.13;;;35.60;53.50;;;;;;5052557;28;20618;-62
2021/07/12 08:43:07;;;;;;;1.65;1.20;;;35.60;54.20;;;;;;5052073;28;20225;-62
2021/07/12 08:45:34;;;;;;;2.35;0.90;;;35.50;54.00;;;;;;5052112;28;20720;-62
2021/07/12 08:48:01;;;;;;;2.15;1.40;;;35.70;53.80;;;;;;5052699;28;20201;-61
2021/07/12 08:50:28;;;;;;;1.55;1.30;;;35.80;53.60;;;;;;5052308;28;20661;-62
2021/07/12 08:52:56;;;;;;;3.10;1.23;;;35.10;54.20;;;;;;5052153;28;20464;-62
2021/07/12 08:55:25;;;;;;;1.52;1.10;;;33.90;56.50;;;;;;5051858;28;20227;-62
2021/07/12 08:58:00;;;;;;;1.80;1.20;;;32.70;59.20;;;;;;5051613;28;20579;-62
2021/07/12 09:00:47;;;;;;;1.25;1.10;;;31.40;61.40;;;;;;5051933;28;20672;-63
2021/07/12 09:03:23;;;;;;;3.83;1.40;;;30.00;63.40;;;;;;5052014;28;20420;-62
2021/07/12 09:05:59;;;;;;;1.20;1.10;;;29.20;66.50;;;;;;5052284;28;20225;-62
2021/07/12 09:08:45;;;;;;;1.27;0.95;;;28.30;68.80;;;;;;5052361;28;20800;-62
2021/07/12 09:11:16;;;;;;;0.93;0.80;;;27.40;71.60;;;;;;5052367;28;20288;-63
2021/07/12 09:13:47;;;;;;;1.30;1.00;;;26.70;74.90;;;;;;5052003;28;20230;-61
2021/07/12 09:16:37;;;;;;;1.80;1.20;;;26.40;76.00;;;;;;5051830;28;20209;-62
2021/07/12 09:19:18;;;;;;;1.95;1.52;;;26.40;76.90;;;;;;5051852;28;20214;-69
2021/07/12 09:21:47;;;;;;;1.90;1.20;;;26.10;77.70;;;;;;5052447;28;20216;-61
2021/07/12 09:24:15;;;;;;;1.60;1.20;;;26.10;79.20;;;;;;5051766;28;20278;-61
2021/07/12 09:26:44;;;;;;;2.05;1.33;;;26.00;80.50;;;;;;5051338;28;20607;-61
2021/07/12 09:29:16;;;;;;;2.10;1.30;;;25.80;81.80;;;;;;5050666;28;20205;-61
2021/07/12 09:31:43;;;;;;;1.70;1.33;;;25.90;81.70;;;;;;5051377;28;20202;-61
2021/07/12 09:34:10;;;;;;;1.50;1.20;;;25.90;82.80;;;;;;5051063;28;20229;-61
2021/07/12 09:36:37;;;;;;;2.25;1.05;;;25.90;82.80;;;;;;5051459;28;20209;-61
2021/07/12 09:39:28;;;;;;;1.42;1.27;;;26.00;81.60;;;;;;5051032;28;20209;-61
2021/07/12 09:41:57;;;;;;;1.33;1.23;;;25.90;81.00;;;;;;5051072;28;20206;-61
2021/07/12 09:44:25;;;;;;;2.42;1.10;;;26.00;82.20;;;;;;5050993;28;20245;-61
2021/07/12 09:46:52;;;;;;;2.47;1.30;;;26.10;81.50;;;;;;5051147;28;20202;-61
2021/07/12 09:49:22;;;;;;;1.98;1.48;;;26.10;81.60;;;;;;5051059;28;20213;-65
2021/07/12 09:51:54;;;;;;;2.50;1.10;;;26.10;83.30;;;;;;5051070;28;20205;-61
2021/07/12 09:54:24;;;;;;;2.95;1.38;;;26.20;81.20;;;;;;5050894;28;20571;-61
2021/07/12 09:56:53;;;;;;;1.85;1.35;;;26.30;82.00;;;;;;5050989;28;20275;-61
2021/07/12 09:59:22;;;;;;;1.88;1.40;;;26.50;81.80;;;;;;5050550;28;20673;-61
2021/07/12 10:01:51;;;;;;;0.90;0.90;;;26.60;81.00;;;;;;5050702;28;20202;-61
2021/07/12 10:04:18;;;;;;;2.13;1.20;;;26.70;80.80;;;;;;5050410;28;20232;-61
2021/07/12 10:06:45;;;;;;;1.23;1.10;;;26.80;80.40;;;;;;5050577;28;20217;-62
2021/07/12 10:09:13;;;;;;;2.03;1.20;;;26.70;79.40;;;;;;5050755;28;20288;-62
2021/07/12 10:11:42;;;;;;;1.20;1.10;;;26.70;80.00;;;;;;5050641;28;20570;-62
2021/07/12 10:14:10;;;;;;;1.77;1.13;;;26.80;80.40;;;;;;5050375;28;20312;-62
2021/07/12 10:16:38;;;;;;;1.90;1.20;;;27.10;79.60;;;;;;5050693;28;20669;-62
2021/07/12 10:19:05;;;;;;;1.13;1.02;;;27.10;80.50;;;;;;5050548;28;20615;-61
2021/07/12 10:21:42;;;;;;;1.75;1.30;;;27.10;79.50;;;;;;5050609;28;20204;-62
2021/07/12 10:24:09;;;;;;;2.50;1.40;;;27.10;79.80;;;;;;5050207;28;20678;-62
2021/07/12 10:26:46;;;;;;;2.97;1.33;;;27.10;79.60;;;;;;5050641;28;20213;-62
2021/07/12 10:29:14;;;;;;;2.17;1.27;;;27.10;77.30;;;;;;5050792;28;20205;-62
2021/07/12 10:32:06;;;;;;;1.92;1.25;;;27.10;77.60;;;;;;5050508;28;20209;-62
2021/07/12 10:34:36;;;;;;;1.20;1.10;;;27.20;78.10;;;;;;5050313;28;20221;-62
2021/07/12 10:37:06;;;;;;;1.90;1.20;;;27.20;78.20;;;;;;5050506;28;20202;-62
2021/07/12 10:40:04;;;;;;;1.35;1.25;;;27.20;77.30;;;;;;5050247;28;20224;-61
2021/07/12 10:42:59;;;;;;;2.75;1.15;;;27.30;76.30;;;;;;5052837;28;20263;-62
2021/07/12 10:45:51;;;;;;;2.30;1.38;;;27.50;74.30;;;;;;5054164;28;20238;-62
2021/07/12 10:48:19;;;;;;;2.22;1.20;;;27.60;76.40;;;;;;5054453;28;20552;-62
2021/07/12 10:50:56;;;;;;;2.00;1.35;;;27.70;75.20;;;;;;5054456;28;20210;-62
2021/07/12 10:53:44;;;;;;;3.67;1.42;;;27.80;74.90;;;;;;5054452;28;20209;-62
2021/07/12 10:56:13;;;;;;;2.65;1.27;;;28.30;73.80;;;;;;5049619;28;20209;-62
2021/07/12 10:58:48;;;;;;;3.05;1.20;;;28.50;74.20;;;;;;5053801;28;20232;-62
2021/07/12 11:01:32;;;;;;;2.53;1.10;;;28.50;73.00;;;;;;5054420;28;20205;-62
2021/07/12 11:04:00;;;;;;;3.05;1.35;;;28.50;71.50;;;;;;5050697;28;20256;-62
2021/07/12 11:06:46;;;;;;;2.47;1.35;;;28.80;68.80;;;;;;5053766;28;20666;-62
2021/07/12 11:09:13;;;;;;;2.35;1.35;;;29.20;68.30;;;;;;5053375;28;20468;-62
2021/07/12 11:11:40;;;;;;;1.33;1.20;;;29.70;70.70;;;;;;5053745;28;20225;-62
2021/07/12 11:14:08;;;;;;;4.25;1.27;;;30.10;70.60;;;;;;5053650;28;20308;-62
2021/07/12 11:16:41;;;;;;;1.30;1.20;;;30.30;70.10;;;;;;5053746;28;20206;-62
2021/07/12 11:19:24;;;;;;;1.23;1.13;;;30.30;68.50;;;;;;5053736;28;20214;-62
2021/07/12 11:21:51;;;;;;;2.10;1.10;;;30.20;69.70;;;;;;5053593;28;20297;-62
2021/07/12 11:24:20;;;;;;;1.52;1.10;;;30.10;68.50;;;;;;5053237;28;20719;-62
2021/07/12 11:26:52;;;;;;;2.08;1.20;;;30.00;70.50;;;;;;5053630;28;20214;-62
2021/07/12 11:29:30;;;;;;;2.83;1.40;;;30.00;70.30;;;;;;5053558;28;20586;-62
2021/07/12 11:31:58;;;;;;;2.63;2.25;;;30.20;69.40;;;;;;5053213;28;20205;-62
2021/07/12 11:34:28;;;;;;;2.42;1.10;;;30.60;67.80;;;;;;5053365;28;20364;-62
2021/07/12 11:36:59;;;;;;;1.77;1.20;;;30.90;66.00;;;;;;5053609;28;20209;-62
2021/07/12 11:39:28;;;;;;;1.15;1.00;;;30.80;64.80;;;;;;5052940;28;20221;-62
2021/07/12 11:41:56;;;;;;;2.40;1.30;;;30.60;65.60;;;;;;5053214;28;20208;-62
2021/07/12 11:44:24;;;;;;;0.90;0.82;;;30.60;65.40;;;;;;5052995;28;20657;-62
2021/07/12 11:46:51;;;;;;;1.75;1.20;;;30.80;65.10;;;;;;5052966;28;20213;-62
2021/07/12 11:49:20;;;;;;;1.40;1.23;;;31.00;65.20;;;;;;5053369;28;20676;-62
2021/07/12 11:51:52;;;;;;;1.17;1.08;;;31.20;63.70;;;;;;5053173;28;20206;-62
2021/07/12 11:54:21;;;;;;;1.25;1.00;;;30.90;64.20;;;;;;5052396;28;20221;-61
2021/07/12 11:56:59;;;;;;;1.52;1.40;;;30.80;65.10;;;;;;5052959;28;20214;-62
2021/07/12 11:59:27;;;;;;;4.57;1.25;;;30.90;65.30;;;;;;5052780;28;20691;-61
2021/07/12 12:01:59;;;;;;;1.55;0.98;;;31.00;64.10;;;;;;5052934;28;20673;-61
2021/07/12 12:04:25;;;;;;;2.90;1.50;;;30.80;64.10;;;;;;5052263;28;20741;-61
2021/07/12 12:06:53;;;;;;;2.80;1.35;;;30.60;66.30;;;;;;5052642;28;20205;-61
2021/07/12 12:09:20;;;;;;;2.42;1.10;;;30.60;64.90;;;;;;5052436;28;20206;-61
2021/07/12 12:11:48;;;;;;;3.30;1.60;;;30.70;64.30;;;;;;5052426;28;20275;-61
2021/07/12 12:14:22;;;;;;;1.30;1.20;;;30.70;64.70;;;;;;5052636;28;20222;-62
2021/07/12 12:16:49;;;;;;;1.00;1.00;;;30.90;61.60;;;;;;5052740;28;20206;-62
2021/07/12 12:19:15;;;;;;;2.88;1.50;;;30.70;60.90;;;;;;5052652;28;20212;-62
2021/07/12 12:21:42;;;;;;;2.42;1.30;;;30.60;61.70;;;;;;5052989;28;20610;-62
2021/07/12 12:24:11;;;;;;;1.80;1.38;;;30.80;61.50;;;;;;5052191;28;20674;-62
2021/07/12 12:26:38;;;;;;;4.03;1.23;;;30.80;63.20;;;;;;5052756;28;20213;-62
2021/07/12 12:29:06;;;;;;;1.25;1.15;;;30.80;63.90;;;;;;5052092;28;20612;-62
2021/07/12 12:31:33;;;;;;;2.00;1.33;;;30.90;62.70;;;;;;5052328;28;20292;-62
2021/07/12 12:34:02;;;;;;;1.63;1.20;;;31.00;64.00;;;;;;5051874;28;20705;-62
2021/07/12 12:36:32;;;;;;;5.13;1.65;;;31.20;63.30;;;;;;5052566;28;20209;-62
2021/07/12 12:39:01;;;;;;;4.40;1.23;;;31.40;63.50;;;;;;5052109;28;20734;-62
2021/07/12 12:41:30;;;;;;;1.25;1.10;;;31.40;62.20;;;;;;5052132;28;20206;-62
2021/07/12 12:44:03;;;;;;;2.65;1.30;;;31.40;61.40;;;;;;5052140;28;20209;-62
2021/07/12 12:46:30;;;;;;;1.70;1.10;;;31.40;60.20;;;;;;5052389;28;20212;-62
2021/07/12 12:48:58;;;;;;;2.10;1.50;;;31.30;60.60;;;;;;5052164;28;20668;-62
2021/07/12 12:51:33;;;;;;;3.33;1.10;;;31.10;61.90;;;;;;5051771;28;20628;-62
2021/07/12 12:54:11;;;;;;;3.08;1.30;;;30.60;63.10;;;;;;5051697;28;20312;-65
2021/07/12 12:56:48;;;;;;;3.83;1.35;;;30.00;64.90;;;;;;5052268;28;20213;-62
2021/07/12 12:59:16;;;;;;;3.80;1.23;;;30.10;64.30;;;;;;5051905;28;20233;-62
2021/07/12 13:01:46;;;;;;;1.60;1.30;;;30.40;63.60;;;;;;5052255;28;20206;-62